Terminal Aerodrome Forecast
Issued by NWS

Home | Current Version | Previous Version | Text Only | Print | Product List | Glossary On
Versions: 1 2 3 4 5 6 7 8 9 10 11 12 13 14 15 16 17 18 19 20 21 22 23 24 25 26 27 28 29 30 31
000
FTUS45 KGJT 301120
TAFEGE
TAF
KEGE 301120Z 3012/3112 00000KT P6SM FEW200
     FM301800 21004KT P6SM FEW110 SCT200
     FM302000 23014G22KT P6SM SCT100 BKN200
     FM310200 25007KT P6SM VCTS SCT070CB BKN100
     FM310600 09004KT P6SM VCSH SCT080 BKN100
      AMD LTD TO CLD VIS AND WIND TIL 301300=

USA.gov is the U.S. government's official web portal to all federal, state and local government web resources and services.